Time;durP1;ratioP1;P1;durP2;ratioP2;P2;SDS_P1;SDS_P2;PMS_P1;PMS_P2;Temp;Humidity;BMP_temperature;BMP_pressure;BME280_temperature;BME280_humidity;BME280_pressure;Samples;Min_cycle;Max_cycle;Signal;HPM_P1;HPM_P2
2023/10/27 00:02:12;;;;;;;8.57;3.90;;;7.50;99.90;;;;;;5026275;28;20036;-86
2023/10/27 00:04:38;;;;;;;4.63;3.60;;;7.50;99.90;;;;;;5031395;28;20036;-86
2023/10/27 00:07:04;;;;;;;5.70;4.30;;;7.50;99.90;;;;;;5019610;28;20052;-86
2023/10/27 00:09:31;;;;;;;6.28;4.38;;;7.50;99.90;;;;;;5027645;28;20104;-86
2023/10/27 00:11:57;;;;;;;5.90;4.80;;;7.40;99.90;;;;;;5028394;28;20540;-86
2023/10/27 00:14:23;;;;;;;6.32;4.57;;;7.40;99.90;;;;;;5031437;28;20037;-85
2023/10/27 00:16:50;;;;;;;7.82;5.47;;;7.40;99.90;;;;;;5018722;28;20092;-85
2023/10/27 00:19:19;;;;;;;11.27;5.80;;;7.40;99.90;;;;;;5018764;28;20028;-86
2023/10/27 00:21:45;;;;;;;7.75;5.57;;;7.40;99.90;;;;;;5029039;28;20030;-86
2023/10/27 00:24:11;;;;;;;8.13;4.82;;;7.40;99.90;;;;;;5022585;28;20018;-86
2023/10/27 00:26:39;;;;;;;8.10;5.10;;;7.40;99.90;;;;;;5028821;28;20041;-86
2023/10/27 00:29:05;;;;;;;5.85;4.43;;;7.40;99.90;;;;;;5030580;28;20044;-86
2023/10/27 00:31:31;;;;;;;8.20;4.20;;;7.40;99.90;;;;;;5028036;28;20550;-86
2023/10/27 00:33:56;;;;;;;11.15;5.57;;;7.40;99.90;;;;;;5022063;28;20456;-86
2023/10/27 00:36:22;;;;;;;6.07;4.93;;;7.40;99.90;;;;;;5026592;28;20120;-86
2023/10/27 00:38:50;;;;;;;6.18;4.80;;;7.30;99.90;;;;;;5031148;28;20037;-87
2023/10/27 00:41:16;;;;;;;11.60;5.18;;;7.30;99.90;;;;;;5017968;28;20075;-86
2023/10/27 00:43:42;;;;;;;6.45;4.60;;;7.30;99.90;;;;;;5030996;28;20025;-87
2023/10/27 00:46:08;;;;;;;10.15;5.63;;;7.20;99.90;;;;;;5033914;28;20021;-86
2023/10/27 00:48:34;;;;;;;8.55;5.93;;;7.20;99.90;;;;;;5022447;28;20216;-86
2023/10/27 00:51:03;;;;;;;8.57;5.47;;;7.20;99.90;;;;;;5028024;28;20365;-86
2023/10/27 00:53:29;;;;;;;9.82;4.82;;;7.20;99.90;;;;;;5029073;28;20032;-86
2023/10/27 00:55:55;;;;;;;4.93;4.00;;;7.20;99.90;;;;;;5017414;28;20041;-86
2023/10/27 00:58:22;;;;;;;6.45;4.88;;;7.20;99.90;;;;;;5030600;28;20091;-86
2023/10/27 01:00:48;;;;;;;5.43;3.72;;;7.30;99.90;;;;;;5029246;28;20457;-86
2023/10/27 01:03:14;;;;;;;5.13;3.85;;;7.30;99.90;;;;;;5028897;28;20048;-87
2023/10/27 01:05:39;;;;;;;5.68;4.40;;;7.30;99.90;;;;;;5031212;28;20036;-86
2023/10/27 01:08:05;;;;;;;5.78;3.90;;;7.20;99.90;;;;;;5027302;28;20025;-86
2023/10/27 01:10:31;;;;;;;8.85;4.55;;;7.30;99.90;;;;;;5029581;28;20371;-86
2023/10/27 01:12:57;;;;;;;6.35;4.70;;;7.20;99.90;;;;;;5028450;28;20020;-87
2023/10/27 01:15:22;;;;;;;8.02;4.68;;;7.20;99.90;;;;;;5023665;28;20034;-86
2023/10/27 01:17:48;;;;;;;13.63;5.38;;;7.20;99.90;;;;;;5033560;28;20110;-86
2023/10/27 01:20:16;;;;;;;5.90;4.22;;;7.10;99.90;;;;;;5034966;28;20105;-87
2023/10/27 01:22:47;;;;;;;5.72;4.38;;;7.10;99.90;;;;;;5030698;28;20362;-87
2023/10/27 01:25:14;;;;;;;5.65;3.90;;;7.10;99.90;;;;;;5028897;28;20033;-87
2023/10/27 01:27:44;;;;;;;4.28;3.40;;;7.10;99.90;;;;;;5028686;28;20124;-86
2023/10/27 01:30:10;;;;;;;7.18;4.22;;;7.20;99.90;;;;;;5024876;28;20381;-87
2023/10/27 01:32:36;;;;;;;5.20;3.63;;;7.10;99.90;;;;;;5026442;28;20021;-86
2023/10/27 01:35:05;;;;;;;5.90;3.72;;;7.10;99.90;;;;;;5032616;28;20068;-87
2023/10/27 01:37:32;;;;;;;4.88;3.63;;;7.10;99.90;;;;;;5025458;28;20041;-86
2023/10/27 01:39:58;;;;;;;6.18;3.10;;;7.20;99.90;;;;;;5028702;28;20104;-86
2023/10/27 01:42:24;;;;;;;5.22;4.18;;;7.20;99.90;;;;;;5035836;28;20105;-86
2023/10/27 01:44:51;;;;;;;3.80;3.40;;;7.20;99.90;;;;;;5025141;28;20044;-86
2023/10/27 01:47:16;;;;;;;4.00;3.33;;;7.20;99.90;;;;;;5030115;28;20024;-86
2023/10/27 01:49:42;;;;;;;4.80;3.90;;;7.20;99.90;;;;;;5023212;28;20116;-87
2023/10/27 01:52:07;;;;;;;3.92;3.53;;;7.20;99.90;;;;;;5024069;28;20021;-86
2023/10/27 01:54:33;;;;;;;4.72;3.58;;;7.20;99.90;;;;;;5025889;28;20406;-86
2023/10/27 01:56:58;;;;;;;4.97;3.72;;;7.20;99.90;;;;;;5029862;28;20045;-85
2023/10/27 01:59:24;;;;;;;5.68;4.05;;;7.30;99.90;;;;;;5026974;28;20017;-86
2023/10/27 02:01:50;;;;;;;6.43;3.83;;;7.30;99.90;;;;;;5028693;28;20120;-86
2023/10/27 02:04:15;;;;;;;5.05;3.55;;;7.30;99.90;;;;;;5028283;28;20045;-86
2023/10/27 02:06:41;;;;;;;4.10;3.40;;;7.30;99.90;;;;;;5026478;28;20033;-86
2023/10/27 02:09:09;;;;;;;8.77;4.82;;;7.30;99.90;;;;;;5025828;28;20112;-86
2023/10/27 02:11:35;;;;;;;3.67;2.97;;;7.40;99.90;;;;;;5022605;28;20013;-86
2023/10/27 02:14:01;;;;;;;4.57;3.03;;;7.40;99.90;;;;;;5025311;28;20031;-86
2023/10/27 02:16:29;;;;;;;3.75;3.08;;;7.40;99.90;;;;;;5028674;28;20052;-86
2023/10/27 02:18:54;;;;;;;3.38;3.08;;;7.40;99.90;;;;;;5032074;28;20025;-86
2023/10/27 02:21:20;;;;;;;3.58;2.78;;;7.50;99.90;;;;;;5021712;28;20028;-86
2023/10/27 02:23:49;;;;;;;5.00;3.17;;;7.50;99.90;;;;;;5026675;28;20024;-86
2023/10/27 02:26:15;;;;;;;4.10;3.08;;;7.50;99.90;;;;;;5024226;28;20347;-86
2023/10/27 02:28:43;;;;;;;3.38;3.05;;;7.50;99.90;;;;;;5025125;28;20087;-86
2023/10/27 02:31:09;;;;;;;4.43;3.45;;;7.60;99.90;;;;;;5032399;28;20057;-85
2023/10/27 02:33:37;;;;;;;4.25;3.40;;;7.60;99.90;;;;;;5027068;28;20064;-86
2023/10/27 02:36:03;;;;;;;3.05;2.75;;;7.50;99.90;;;;;;5031358;28;20121;-86
2023/10/27 02:38:29;;;;;;;5.68;3.30;;;7.50;99.90;;;;;;5027479;28;20112;-86
2023/10/27 02:40:54;;;;;;;6.57;2.75;;;7.50;99.90;;;;;;5025945;28;20027;-86
2023/10/27 02:43:20;;;;;;;4.22;2.78;;;7.50;99.90;;;;;;5018565;28;20030;-86
2023/10/27 02:45:45;;;;;;;3.25;2.95;;;7.40;99.90;;;;;;5041136;28;20447;-86
2023/10/27 02:48:11;;;;;;;7.25;2.70;;;7.40;99.90;;;;;;5029327;28;20057;-86
2023/10/27 02:50:36;;;;;;;3.40;3.00;;;7.40;99.90;;;;;;5030605;28;20022;-86
2023/10/27 02:53:02;;;;;;;3.72;3.30;;;7.40;99.90;;;;;;5032302;28;20413;-86
2023/10/27 02:55:28;;;;;;;4.32;3.38;;;7.40;99.90;;;;;;5027608;28;20033;-86
2023/10/27 02:57:53;;;;;;;3.05;2.75;;;7.30;99.90;;;;;;5006051;28;20042;-87
2023/10/27 03:00:19;;;;;;;4.20;3.20;;;7.40;99.90;;;;;;5030456;28;20072;-85
2023/10/27 03:02:45;;;;;;;3.30;2.83;;;7.40;99.90;;;;;;5029740;28;20069;-87
2023/10/27 03:05:10;;;;;;;3.05;2.75;;;7.40;99.90;;;;;;5036424;28;20028;-86
2023/10/27 03:07:36;;;;;;;3.10;2.70;;;7.50;99.90;;;;;;5027756;28;20337;-86
2023/10/27 03:10:02;;;;;;;3.47;3.17;;;7.50;99.90;;;;;;5031967;28;20457;-86
2023/10/27 03:12:28;;;;;;;3.15;2.78;;;7.50;99.90;;;;;;5029854;28;20034;-86
2023/10/27 03:14:53;;;;;;;8.32;3.47;;;7.50;99.90;;;;;;5027455;28;20152;-86
2023/10/27 03:17:20;;;;;;;6.93;4.65;;;7.50;99.90;;;;;;5021075;28;20038;-86
2023/10/27 03:19:45;;;;;;;16.60;8.70;;;7.50;99.90;;;;;;5028851;28;20101;-86
2023/10/27 03:22:18;;;;;;;12.48;8.80;;;7.50;99.90;;;;;;5031373;28;20114;-87
2023/10/27 03:24:45;;;;;;;16.33;11.57;;;7.50;99.90;;;;;;5028227;28;20501;-87
2023/10/27 03:27:15;;;;;;;24.23;15.93;;;7.40;99.90;;;;;;5025574;28;20157;-86
2023/10/27 03:29:45;;;;;;;31.52;19.40;;;7.40;99.90;;;;;;5019554;28;20029;-87
2023/10/27 03:32:12;;;;;;;26.02;18.48;;;7.40;99.90;;;;;;5025199;28;20025;-87
2023/10/27 03:34:38;;;;;;;21.88;15.48;;;7.40;99.90;;;;;;5028626;28;20022;-86
2023/10/27 03:37:04;;;;;;;17.38;12.32;;;7.40;99.90;;;;;;5030816;28;20231;-86
2023/10/27 03:39:29;;;;;;;19.13;11.77;;;7.40;99.90;;;;;;5029723;28;20025;-86
2023/10/27 03:41:56;;;;;;;15.80;11.20;;;7.40;99.90;;;;;;5024606;28;20458;-87
2023/10/27 03:44:22;;;;;;;15.85;10.65;;;7.40;99.90;;;;;;5030885;28;20091;-86
2023/10/27 03:46:49;;;;;;;23.33;12.73;;;7.40;99.90;;;;;;5024297;28;20378;-86
2023/10/27 03:49:15;;;;;;;14.32;9.43;;;7.40;99.90;;;;;;5020995;28;20021;-87
2023/10/27 03:51:40;;;;;;;18.35;12.55;;;7.40;99.90;;;;;;5024690;28;20076;-86
2023/10/27 03:54:06;;;;;;;15.65;11.30;;;7.40;99.90;;;;;;5027574;28;20022;-86
2023/10/27 03:56:33;;;;;;;15.43;10.55;;;7.40;99.90;;;;;;5025208;28;20050;-87
2023/10/27 03:59:07;;;;;;;15.85;10.82;;;7.40;99.90;;;;;;5016426;28;20026;-87
2023/10/27 04:01:33;;;;;;;12.98;9.32;;;7.40;99.90;;;;;;5028217;28;20036;-87
2023/10/27 04:04:03;;;;;;;14.90;9.95;;;7.40;99.90;;;;;;5025367;28;20049;-86
2023/10/27 04:06:31;;;;;;;14.73;9.98;;;7.40;99.90;;;;;;5030127;28;20038;-87
2023/10/27 04:09:00;;;;;;;12.50;9.18;;;7.40;99.90;;;;;;5020561;28;20025;-86
2023/10/27 04:11:28;;;;;;;9.98;7.53;;;7.40;99.90;;;;;;5011931;28;20078;-87
2023/10/27 04:13:54;;;;;;;9.48;7.28;;;7.50;99.90;;;;;;5026617;28;20029;-86
2023/10/27 04:16:19;;;;;;;8.55;6.45;;;7.50;99.90;;;;;;5026065;28;20033;-86
2023/10/27 04:18:45;;;;;;;7.88;6.18;;;7.60;99.90;;;;;;5023213;28;20029;-86
2023/10/27 04:21:11;;;;;;;14.07;7.53;;;7.60;99.90;;;;;;5024069;28;20017;-87
2023/10/27 04:23:39;;;;;;;8.63;6.30;;;7.60;99.90;;;;;;5026166;28;20033;-86
2023/10/27 04:26:06;;;;;;;13.73;7.68;;;7.60;99.90;;;;;;5029554;28;20034;-86
2023/10/27 04:28:32;;;;;;;10.45;6.40;;;7.60;99.90;;;;;;5025438;28;20018;-86
2023/10/27 04:30:57;;;;;;;8.38;6.40;;;7.60;99.90;;;;;;5031861;28;20032;-86
2023/10/27 04:33:24;;;;;;;7.80;5.75;;;7.60;99.90;;;;;;5022590;28;20022;-86
2023/10/27 04:35:50;;;;;;;8.90;6.07;;;7.60;99.90;;;;;;5032774;28;20024;-86
2023/10/27 04:38:19;;;;;;;7.40;5.32;;;7.60;99.90;;;;;;5023273;28;20044;-86
2023/10/27 04:40:44;;;;;;;9.63;5.75;;;7.60;99.90;;;;;;5027359;28;20263;-87
2023/10/27 04:43:10;;;;;;;6.88;4.78;;;7.70;99.90;;;;;;5026797;28;20049;-87
2023/10/27 04:45:35;;;;;;;6.22;5.05;;;7.70;99.90;;;;;;5028919;28;20485;-86
2023/10/27 04:48:01;;;;;;;5.60;4.78;;;7.70;99.90;;;;;;5027060;28;20219;-86
2023/10/27 04:50:27;;;;;;;7.10;4.60;;;7.70;99.90;;;;;;5027769;28;20079;-86
2023/10/27 04:52:53;;;;;;;6.30;4.85;;;7.70;99.90;;;;;;5024164;28;20100;-87
2023/10/27 04:55:43;;;;;;;5.65;4.82;;;7.70;99.90;;;;;;5028914;28;20481;-86
2023/10/27 04:58:09;;;;;;;8.55;5.18;;;7.70;99.90;;;;;;5006398;28;20045;-86
2023/10/27 05:00:34;;;;;;;6.57;5.50;;;7.80;99.90;;;;;;5016450;28;20021;-86
2023/10/27 05:03:00;;;;;;;5.70;4.65;;;7.80;99.90;;;;;;5028304;28;20458;-86
2023/10/27 05:05:26;;;;;;;5.18;3.92;;;7.80;99.90;;;;;;5030914;28;20067;-86
2023/10/27 05:07:51;;;;;;;5.55;4.18;;;7.80;99.90;;;;;;5020158;28;20033;-86
2023/10/27 05:10:17;;;;;;;5.10;4.13;;;7.90;99.90;;;;;;5016056;28;20172;-86
2023/10/27 05:12:43;;;;;;;6.65;5.50;;;7.90;99.90;;;;;;5017903;28;20285;-86
2023/10/27 05:15:08;;;;;;;6.50;4.95;;;7.90;99.90;;;;;;5030914;28;20028;-86
2023/10/27 05:17:35;;;;;;;5.40;4.53;;;7.90;99.90;;;;;;5023619;28;20048;-86
2023/10/27 05:20:02;;;;;;;4.80;4.30;;;7.90;99.90;;;;;;5022827;28;20373;-86
2023/10/27 05:22:28;;;;;;;5.18;4.00;;;8.00;99.90;;;;;;5021211;28;20033;-87
2023/10/27 05:24:54;;;;;;;6.57;4.82;;;8.00;99.90;;;;;;5020644;28;20049;-87
2023/10/27 05:27:19;;;;;;;6.57;4.72;;;8.00;99.90;;;;;;5030329;28;20092;-86
2023/10/27 05:29:45;;;;;;;6.85;4.85;;;8.10;99.90;;;;;;5021329;28;21468;-86
2023/10/27 05:32:12;;;;;;;6.38;4.40;;;8.10;99.90;;;;;;5027945;28;20099;-87
2023/10/27 05:34:38;;;;;;;5.85;4.50;;;8.10;99.90;;;;;;5027418;28;20025;-86
2023/10/27 05:37:03;;;;;;;8.90;4.90;;;8.10;99.90;;;;;;5023989;28;20091;-86
2023/10/27 05:39:31;;;;;;;7.55;4.63;;;8.10;99.90;;;;;;5031957;28;20028;-87
2023/10/27 05:41:57;;;;;;;7.28;5.20;;;8.10;99.90;;;;;;5022398;28;20033;-87
2023/10/27 05:44:23;;;;;;;6.97;5.00;;;8.10;99.90;;;;;;5026588;28;20469;-86
2023/10/27 05:46:48;;;;;;;5.72;4.40;;;8.10;99.90;;;;;;5024921;28;20410;-87
2023/10/27 05:49:14;;;;;;;8.27;4.13;;;8.20;99.90;;;;;;5002276;28;20705;-87
2023/10/27 05:51:39;;;;;;;5.43;4.20;;;8.20;99.90;;;;;;5033571;28;20029;-86
2023/10/27 05:54:05;;;;;;;7.25;4.43;;;8.20;99.90;;;;;;5031604;28;20472;-86
2023/10/27 05:56:31;;;;;;;7.57;4.00;;;8.20;99.90;;;;;;5023979;28;20048;-87
2023/10/27 05:59:00;;;;;;;9.02;4.32;;;8.20;99.90;;;;;;5024557;28;20346;-89
2023/10/27 06:01:25;;;;;;;5.35;4.25;;;8.20;99.90;;;;;;5024772;28;20036;-87
2023/10/27 06:03:53;;;;;;;6.85;4.75;;;8.20;99.90;;;;;;5022197;28;20041;-87
2023/10/27 06:06:19;;;;;;;5.10;4.28;;;8.20;99.90;;;;;;5023958;28;20047;-86
2023/10/27 06:08:45;;;;;;;6.25;4.07;;;8.30;99.90;;;;;;5026657;28;20537;-86
2023/10/27 06:11:11;;;;;;;4.97;3.88;;;8.30;99.90;;;;;;5022975;28;20109;-86
2023/10/27 06:13:37;;;;;;;5.93;4.43;;;8.30;99.90;;;;;;5019029;28;20040;-87
2023/10/27 06:16:07;;;;;;;6.18;3.80;;;8.30;99.90;;;;;;5021488;28;20045;-88
2023/10/27 06:18:33;;;;;;;5.53;4.45;;;8.30;99.90;;;;;;5018969;28;20040;-89
2023/10/27 06:20:59;;;;;;;5.35;3.80;;;8.30;99.90;;;;;;5023799;28;20120;-87
2023/10/27 06:23:24;;;;;;;11.00;4.45;;;8.30;99.90;;;;;;5022112;28;20113;-86
2023/10/27 06:25:50;;;;;;;6.43;4.00;;;8.30;99.90;;;;;;5016260;28;20040;-87
2023/10/27 06:28:16;;;;;;;8.77;4.63;;;8.30;99.90;;;;;;5021537;28;20025;-87
2023/10/27 06:30:42;;;;;;;22.27;5.13;;;8.30;99.90;;;;;;5020414;28;20091;-87
2023/10/27 06:33:10;;;;;;;11.45;5.53;;;8.30;99.90;;;;;;5024228;28;20056;-88
2023/10/27 06:35:36;;;;;;;11.02;5.22;;;8.30;99.90;;;;;;5023739;28;20468;-86
2023/10/27 06:38:01;;;;;;;9.25;5.22;;;8.30;99.90;;;;;;5021438;28;20071;-86
2023/10/27 06:40:27;;;;;;;14.48;6.80;;;8.30;99.90;;;;;;5017856;28;20072;-86
2023/10/27 06:42:52;;;;;;;30.30;17.27;;;8.30;99.90;;;;;;5021414;28;20036;-86
2023/10/27 06:45:18;;;;;;;28.55;15.48;;;8.40;99.90;;;;;;5004624;28;20090;-87
2023/10/27 06:47:45;;;;;;;20.30;9.65;;;8.40;99.90;;;;;;5024328;28;20022;-86
2023/10/27 06:50:10;;;;;;;18.92;9.35;;;8.40;99.90;;;;;;5021836;28;20026;-87
2023/10/27 06:52:36;;;;;;;12.90;8.43;;;8.40;99.90;;;;;;5025345;28;20425;-86
2023/10/27 06:55:02;;;;;;;14.25;9.23;;;8.40;99.90;;;;;;5020960;28;20021;-87
2023/10/27 06:57:28;;;;;;;14.93;10.07;;;8.40;99.90;;;;;;5019560;28;20045;-87
2023/10/27 06:59:56;;;;;;;16.38;11.50;;;8.40;99.90;;;;;;5019803;28;20469;-87
2023/10/27 07:02:23;;;;;;;20.60;14.00;;;8.40;99.90;;;;;;5023205;28;20050;-86
2023/10/27 07:04:49;;;;;;;22.00;13.43;;;8.50;99.90;;;;;;5023155;28;20449;-86
2023/10/27 07:07:15;;;;;;;16.77;11.32;;;8.50;99.90;;;;;;5022187;28;20021;-87
2023/10/27 07:09:44;;;;;;;21.80;9.77;;;8.50;99.90;;;;;;5021246;28;20037;-87
2023/10/27 07:12:10;;;;;;;16.63;8.93;;;8.50;99.90;;;;;;5018738;28;20473;-87
2023/10/27 07:14:36;;;;;;;19.85;9.00;;;8.60;99.90;;;;;;5023404;28;20056;-87
2023/10/27 07:17:03;;;;;;;14.38;8.15;;;8.60;99.90;;;;;;5019104;28;20037;-87
2023/10/27 07:19:32;;;;;;;11.32;7.57;;;8.60;99.90;;;;;;5022963;28;20064;-87
2023/10/27 07:21:58;;;;;;;15.05;7.75;;;8.70;99.90;;;;;;5003882;28;20078;-87
2023/10/27 07:24:23;;;;;;;12.15;6.85;;;8.70;99.90;;;;;;5005828;28;20034;-86
2023/10/27 07:26:49;;;;;;;13.40;6.60;;;8.70;99.90;;;;;;5020062;28;20155;-87
2023/10/27 07:29:15;;;;;;;15.05;7.90;;;8.70;99.90;;;;;;5022418;28;20469;-87
2023/10/27 07:31:40;;;;;;;10.43;6.97;;;8.70;99.90;;;;;;5022365;28;20034;-87
2023/10/27 07:34:06;;;;;;;9.80;7.22;;;8.80;99.90;;;;;;5024987;28;20024;-87
2023/10/27 07:36:38;;;;;;;11.80;7.10;;;8.80;99.90;;;;;;5026850;28;20036;-87
2023/10/27 07:39:03;;;;;;;11.77;7.47;;;8.80;99.90;;;;;;5025938;28;20531;-87
2023/10/27 07:41:29;;;;;;;15.80;10.55;;;8.80;99.90;;;;;;5026928;28;20108;-86
2023/10/27 07:43:55;;;;;;;16.77;10.07;;;8.80;99.90;;;;;;5029931;28;20021;-87
2023/10/27 07:46:20;;;;;;;17.10;11.60;;;8.80;99.90;;;;;;4999168;28;20374;-87
2023/10/27 07:48:46;;;;;;;19.70;12.75;;;8.80;99.90;;;;;;5027266;28;20385;-87
2023/10/27 07:51:12;;;;;;;21.80;12.70;;;8.80;99.90;;;;;;5018149;28;20028;-87
2023/10/27 07:53:38;;;;;;;18.17;12.60;;;8.80;99.90;;;;;;5022829;28;20489;-86
2023/10/27 07:56:04;;;;;;;17.58;12.07;;;8.80;99.90;;;;;;5023410;28;20474;-87
2023/10/27 07:58:30;;;;;;;19.67;11.93;;;8.80;99.90;;;;;;5023255;28;20047;-87
2023/10/27 08:00:55;;;;;;;18.90;11.68;;;8.80;99.90;;;;;;5025948;28;20529;-88
2023/10/27 08:03:23;;;;;;;22.25;12.93;;;8.80;99.90;;;;;;5005598;28;20452;-86
2023/10/27 08:05:50;;;;;;;20.17;11.88;;;8.80;99.90;;;;;;5025680;28;20083;-86
2023/10/27 08:08:15;;;;;;;22.80;11.45;;;8.80;99.90;;;;;;5024071;28;20476;-86
2023/10/27 08:10:44;;;;;;;17.20;10.32;;;8.80;99.90;;;;;;5026184;28;20045;-87
2023/10/27 08:13:10;;;;;;;20.55;10.20;;;8.80;99.90;;;;;;5023379;28;20029;-87
2023/10/27 08:15:36;;;;;;;14.15;9.80;;;8.80;99.90;;;;;;5023435;28;20395;-86
2023/10/27 08:18:03;;;;;;;16.27;8.68;;;8.90;99.90;;;;;;5009651;28;20318;-86
2023/10/27 08:20:29;;;;;;;12.02;7.97;;;8.90;99.90;;;;;;5026235;28;20103;-87
2023/10/27 08:22:54;;;;;;;10.68;7.43;;;8.80;99.90;;;;;;5025180;28;20021;-86
2023/10/27 08:25:23;;;;;;;16.27;8.77;;;8.80;99.90;;;;;;5027783;28;20821;-86
2023/10/27 08:27:49;;;;;;;21.35;10.55;;;8.80;99.90;;;;;;5019368;28;20042;-86
2023/10/27 08:30:16;;;;;;;18.08;9.82;;;8.80;99.90;;;;;;5017514;28;20025;-86
2023/10/27 08:32:41;;;;;;;17.13;10.13;;;8.90;99.90;;;;;;5027696;28;20103;-87
2023/10/27 08:35:07;;;;;;;26.13;12.35;;;8.80;99.90;;;;;;5019661;28;20434;-86
2023/10/27 08:37:33;;;;;;;16.27;9.25;;;8.80;99.90;;;;;;5020680;28;20487;-87
2023/10/27 08:39:59;;;;;;;15.30;9.07;;;8.80;99.90;;;;;;5028008;28;20037;-86
2023/10/27 08:42:28;;;;;;;16.27;9.52;;;8.80;99.90;;;;;;5025964;28;20037;-86
2023/10/27 08:44:55;;;;;;;17.50;10.30;;;8.80;99.90;;;;;;5023778;28;20389;-86
2023/10/27 08:47:21;;;;;;;16.25;9.13;;;8.70;99.90;;;;;;5033311;28;20116;-86
2023/10/27 08:49:47;;;;;;;16.27;9.25;;;8.70;99.90;;;;;;5025385;28;20037;-86
2023/10/27 08:52:14;;;;;;;12.30;8.73;;;8.60;99.90;;;;;;5014778;28;20014;-87
2023/10/27 08:54:45;;;;;;;17.65;10.43;;;8.60;99.90;;;;;;5027029;28;20425;-86
2023/10/27 08:57:11;;;;;;;17.92;10.45;;;8.60;99.90;;;;;;5031981;28;20042;-86
2023/10/27 08:59:36;;;;;;;16.38;10.77;;;8.60;99.90;;;;;;5031171;28;20037;-86
2023/10/27 09:02:04;;;;;;;19.08;10.85;;;8.60;99.90;;;;;;5029163;28;20033;-86
2023/10/27 09:04:31;;;;;;;25.95;11.00;;;8.60;99.90;;;;;;5029086;28;20029;-87
2023/10/27 09:06:57;;;;;;;20.83;10.02;;;8.60;99.90;;;;;;5028227;28;20385;-86
2023/10/27 09:09:22;;;;;;;19.13;10.95;;;8.60;99.90;;;;;;5025910;28;20026;-86
2023/10/27 09:11:49;;;;;;;16.33;10.43;;;8.60;99.90;;;;;;5026548;28;20044;-86
2023/10/27 09:14:30;;;;;;;19.45;9.50;;;8.50;99.90;;;;;;5031886;28;20029;-86
2023/10/27 09:17:10;;;;;;;12.63;9.02;;;8.50;99.90;;;;;;5027556;28;20037;-87
2023/10/27 09:19:36;;;;;;;13.68;8.65;;;8.50;99.90;;;;;;5018281;28;20037;-86
2023/10/27 09:22:05;;;;;;;13.20;9.00;;;8.60;99.90;;;;;;5019249;28;20044;-87
2023/10/27 09:24:31;;;;;;;12.15;8.18;;;8.60;99.90;;;;;;5001952;28;20029;-86
2023/10/27 09:27:00;;;;;;;17.13;10.05;;;8.60;99.90;;;;;;5021080;28;20047;-88
2023/10/27 09:29:26;;;;;;;19.38;10.80;;;8.60;99.90;;;;;;5017847;28;20026;-87
2023/10/27 09:31:53;;;;;;;19.45;11.80;;;8.60;99.90;;;;;;5003930;28;20477;-86
2023/10/27 09:34:21;;;;;;;17.27;9.43;;;8.70;99.90;;;;;;5023333;28;20033;-87
2023/10/27 09:36:49;;;;;;;15.80;9.55;;;8.70;99.90;;;;;;5023702;28;20037;-86
2023/10/27 09:39:17;;;;;;;17.05;11.75;;;8.70;99.90;;;;;;5026618;28;20021;-85
2023/10/27 09:42:08;;;;;;;21.60;11.77;;;8.70;99.90;;;;;;5022993;28;20069;-86
2023/10/27 09:44:51;;;;;;;16.08;10.15;;;8.80;99.90;;;;;;5024319;28;20029;-86
2023/10/27 09:47:36;;;;;;;18.67;11.00;;;8.80;99.90;;;;;;5025635;28;20026;-86
2023/10/27 09:50:07;;;;;;;13.80;9.20;;;8.70;99.90;;;;;;5027130;28;20017;-86
2023/10/27 09:52:34;;;;;;;13.52;9.02;;;8.80;99.90;;;;;;5022050;28;20104;-87
2023/10/27 09:55:05;;;;;;;13.70;8.75;;;8.80;99.90;;;;;;5002829;28;20044;-87
2023/10/27 09:57:32;;;;;;;14.73;9.48;;;8.80;99.90;;;;;;5020270;28;20086;-87
2023/10/27 10:00:03;;;;;;;17.38;11.38;;;8.80;99.90;;;;;;5006003;28;20400;-88
2023/10/27 10:02:30;;;;;;;15.60;10.80;;;8.80;99.90;;;;;;5015992;28;20091;-87
2023/10/27 10:04:59;;;;;;;18.98;11.05;;;8.80;99.90;;;;;;5023434;28;20113;-87
2023/10/27 10:07:30;;;;;;;18.33;11.77;;;8.90;99.90;;;;;;5024645;28;20052;-88
2023/10/27 10:09:56;;;;;;;16.40;11.32;;;8.90;99.90;;;;;;5028035;28;20041;-86
2023/10/27 10:12:22;;;;;;;16.55;10.40;;;8.90;99.90;;;;;;5027351;28;20033;-86
2023/10/27 10:14:48;;;;;;;16.17;10.10;;;8.90;99.90;;;;;;5024037;28;20021;-87
2023/10/27 10:17:37;;;;;;;19.05;11.95;;;8.90;99.90;;;;;;5019525;28;20061;-87
2023/10/27 10:20:05;;;;;;;19.85;11.48;;;9.00;99.90;;;;;;5019632;28;20037;-86
2023/10/27 10:22:40;;;;;;;18.42;10.10;;;8.90;99.90;;;;;;5002794;28;20125;-85
2023/10/27 10:25:15;;;;;;;16.00;11.67;;;9.00;99.90;;;;;;5015309;28;20045;-86
2023/10/27 10:28:08;;;;;;;17.30;10.80;;;9.00;99.90;;;;;;5022421;28;20465;-87
2023/10/27 10:30:41;;;;;;;19.27;11.30;;;9.00;99.90;;;;;;5019188;28;20029;-87
2023/10/27 10:33:28;;;;;;;16.23;10.68;;;9.00;99.90;;;;;;5020038;28;20457;-86
2023/10/27 10:36:14;;;;;;;16.10;10.95;;;9.10;99.90;;;;;;5019877;28;20367;-86
2023/10/27 10:39:04;;;;;;;21.25;12.23;;;9.10;99.90;;;;;;5022355;28;20041;-86
2023/10/27 10:41:44;;;;;;;20.52;11.23;;;9.10;99.90;;;;;;5020761;28;20045;-86
2023/10/27 10:44:14;;;;;;;15.45;10.90;;;9.20;99.90;;;;;;5020384;28;20030;-86
2023/10/27 10:46:45;;;;;;;17.17;11.75;;;9.20;99.90;;;;;;5016312;28;20045;-87
2023/10/27 10:49:31;;;;;;;19.92;13.23;;;9.10;99.90;;;;;;5021432;28;20033;-87
2023/10/27 10:51:58;;;;;;;19.45;14.13;;;9.20;99.90;;;;;;5012126;28;20032;-87
2023/10/27 10:54:32;;;;;;;24.33;12.73;;;9.20;99.90;;;;;;5022973;28;20108;-86
2023/10/27 10:57:03;;;;;;;21.08;14.43;;;9.20;99.90;;;;;;5021131;28;20041;-87
2023/10/27 10:59:28;;;;;;;20.73;13.93;;;9.30;99.90;;;;;;4996668;28;20031;-86
2023/10/27 11:01:56;;;;;;;20.63;12.57;;;9.30;99.90;;;;;;5024009;28;20108;-86
2023/10/27 11:04:34;;;;;;;23.92;13.27;;;9.30;99.90;;;;;;5024571;28;20049;-86
2023/10/27 11:07:02;;;;;;;19.17;12.38;;;9.30;99.90;;;;;;5023389;28;20121;-86
2023/10/27 11:09:28;;;;;;;28.02;14.90;;;9.30;99.90;;;;;;5009633;28;20469;-87
2023/10/27 11:11:54;;;;;;;23.15;14.98;;;9.30;99.90;;;;;;5027010;28;20049;-88
2023/10/27 11:14:20;;;;;;;24.48;15.95;;;9.30;99.90;;;;;;5030273;28;20025;-86
2023/10/27 11:16:55;;;;;;;24.35;15.98;;;9.30;99.90;;;;;;5026637;28;20091;-87
2023/10/27 11:19:21;;;;;;;24.60;15.20;;;9.30;99.90;;;;;;5030534;28;20075;-86
2023/10/27 11:21:52;;;;;;;23.52;14.45;;;9.30;99.90;;;;;;5023133;28;20026;-87
2023/10/27 11:24:18;;;;;;;22.33;14.50;;;9.40;99.90;;;;;;5023236;28;20022;-86
2023/10/27 11:26:45;;;;;;;19.95;14.45;;;9.30;99.90;;;;;;5028998;28;20477;-87
2023/10/27 11:29:11;;;;;;;30.50;18.42;;;9.40;99.90;;;;;;5020815;28;20036;-87
2023/10/27 11:31:39;;;;;;;27.48;15.32;;;9.40;99.90;;;;;;5026608;28;20131;-85
2023/10/27 11:34:06;;;;;;;29.33;15.93;;;9.40;99.90;;;;;;5024138;28;20042;-84
2023/10/27 11:36:42;;;;;;;22.38;15.02;;;9.50;99.90;;;;;;5028808;28;20566;-86
2023/10/27 11:39:22;;;;;;;40.35;18.20;;;9.50;99.90;;;;;;5006493;28;20120;-86
2023/10/27 11:41:48;;;;;;;22.92;15.45;;;9.50;99.90;;;;;;5028963;28;20021;-86
2023/10/27 11:44:15;;;;;;;24.23;15.07;;;9.60;99.90;;;;;;5003442;28;20132;-86
2023/10/27 11:46:48;;;;;;;28.08;16.65;;;9.60;99.90;;;;;;5026446;28;20036;-86
2023/10/27 11:49:14;;;;;;;25.65;14.60;;;9.60;99.90;;;;;;5025404;28;20492;-87
2023/10/27 11:51:42;;;;;;;24.80;15.48;;;9.60;99.90;;;;;;5018113;28;20079;-87
2023/10/27 11:54:08;;;;;;;23.48;15.15;;;9.70;99.90;;;;;;5028118;28;20018;-86
2023/10/27 11:56:34;;;;;;;27.48;16.08;;;9.70;99.90;;;;;;5023097;28;20069;-86
2023/10/27 11:58:59;;;;;;;25.75;16.52;;;9.70;99.90;;;;;;5021973;28;20061;-86
2023/10/27 12:01:25;;;;;;;18.95;13.45;;;9.70;99.90;;;;;;5027508;28;20022;-86
2023/10/27 12:03:50;;;;;;;22.40;14.18;;;9.70;99.90;;;;;;5034790;28;20038;-85
2023/10/27 12:06:16;;;;;;;26.52;14.68;;;9.80;99.90;;;;;;5027901;28;20433;-88
2023/10/27 12:08:41;;;;;;;28.52;17.35;;;9.80;99.90;;;;;;5025430;28;20412;-87
2023/10/27 12:11:07;;;;;;;29.98;16.52;;;9.80;99.90;;;;;;5006758;28;20018;-86
2023/10/27 12:13:33;;;;;;;20.63;15.10;;;9.90;99.90;;;;;;5009973;28;20016;-86
2023/10/27 12:15:58;;;;;;;23.05;15.25;;;9.90;99.90;;;;;;5028783;28;20060;-86
2023/10/27 12:18:24;;;;;;;28.67;16.50;;;9.90;99.90;;;;;;5028868;28;20027;-86
2023/10/27 12:20:50;;;;;;;26.20;16.25;;;9.90;99.90;;;;;;5007259;28;20490;-86
2023/10/27 12:23:18;;;;;;;31.65;17.23;;;10.00;99.90;;;;;;5027966;28;20017;-86
2023/10/27 12:25:43;;;;;;;27.98;16.08;;;10.00;99.90;;;;;;5028633;28;20029;-86
2023/10/27 12:28:09;;;;;;;29.58;18.02;;;10.00;99.90;;;;;;5024297;28;20028;-86
2023/10/27 12:30:36;;;;;;;33.38;19.15;;;10.00;99.90;;;;;;5025183;28;20039;-87
2023/10/27 12:33:03;;;;;;;32.22;15.52;;;10.00;99.90;;;;;;5024165;28;20074;-87
2023/10/27 12:35:30;;;;;;;29.77;16.35;;;10.00;99.90;;;;;;5024933;28;20037;-88
2023/10/27 12:37:56;;;;;;;24.27;14.15;;;10.00;99.90;;;;;;5025089;28;20042;-87
2023/10/27 12:40:24;;;;;;;22.40;14.27;;;10.00;99.90;;;;;;5026841;28;20453;-86
2023/10/27 12:42:50;;;;;;;23.67;13.75;;;10.10;99.90;;;;;;5026276;28;20021;-86
2023/10/27 12:45:17;;;;;;;28.33;17.00;;;10.10;99.90;;;;;;5027226;28;20090;-87
2023/10/27 12:47:44;;;;;;;34.13;16.70;;;10.10;99.90;;;;;;5025625;28;20265;-87